sensor_id;sensor_type;location;lat;lon;timestamp;P1;durP1;ratioP1;P2;durP2;ratioP2
76765;SDS011;65707;52.362;6.588;2024-02-26T00:02:11;10.55;;;4.93;;
76765;SDS011;65707;52.362;6.588;2024-02-26T00:04:39;10.80;;;4.78;;
76765;SDS011;65707;52.362;6.588;2024-02-26T00:07:06;11.00;;;4.55;;
76765;SDS011;65707;52.362;6.588;2024-02-26T00:09:33;11.27;;;4.38;;
76765;SDS011;65707;52.362;6.588;2024-02-26T00:12:02;9.38;;;4.75;;
76765;SDS011;65707;52.362;6.588;2024-02-26T00:14:29;9.75;;;4.72;;
76765;SDS011;65707;52.362;6.588;2024-02-26T00:16:56;10.18;;;5.13;;
76765;SDS011;65707;52.362;6.588;2024-02-26T00:19:24;9.65;;;5.00;;
76765;SDS011;65707;52.362;6.588;2024-02-26T00:21:51;10.35;;;5.28;;
76765;SDS011;65707;52.362;6.588;2024-02-26T00:24:18;9.65;;;4.32;;
76765;SDS011;65707;52.362;6.588;2024-02-26T00:26:45;10.07;;;5.40;;
76765;SDS011;65707;52.362;6.588;2024-02-26T00:29:17;10.93;;;4.93;;
76765;SDS011;65707;52.362;6.588;2024-02-26T00:31:44;10.25;;;4.85;;
76765;SDS011;65707;52.362;6.588;2024-02-26T00:34:11;10.38;;;5.20;;
76765;SDS011;65707;52.362;6.588;2024-02-26T00:36:39;10.15;;;4.60;;
76765;SDS011;65707;52.362;6.588;2024-02-26T00:39:05;9.45;;;4.80;;
76765;SDS011;65707;52.362;6.588;2024-02-26T00:41:32;10.18;;;5.55;;
76765;SDS011;65707;52.362;6.588;2024-02-26T00:43:59;10.13;;;5.20;;
76765;SDS011;65707;52.362;6.588;2024-02-26T00:46:26;10.95;;;5.22;;
76765;SDS011;65707;52.362;6.588;2024-02-26T00:48:52;10.85;;;5.18;;
76765;SDS011;65707;52.362;6.588;2024-02-26T00:51:19;9.82;;;5.20;;
76765;SDS011;65707;52.362;6.588;2024-02-26T00:53:47;10.15;;;4.80;;
76765;SDS011;65707;52.362;6.588;2024-02-26T00:56:14;10.27;;;5.40;;
76765;SDS011;65707;52.362;6.588;2024-02-26T00:58:41;9.82;;;4.50;;
76765;SDS011;65707;52.362;6.588;2024-02-26T01:01:07;9.50;;;4.80;;
76765;SDS011;65707;52.362;6.588;2024-02-26T01:03:34;11.68;;;5.18;;
76765;SDS011;65707;52.362;6.588;2024-02-26T01:06:01;8.98;;;4.40;;
76765;SDS011;65707;52.362;6.588;2024-02-26T01:08:28;11.35;;;5.07;;
76765;SDS011;65707;52.362;6.588;2024-02-26T01:10:57;13.40;;;5.38;;
76765;SDS011;65707;52.362;6.588;2024-02-26T01:13:24;14.80;;;6.50;;
76765;SDS011;65707;52.362;6.588;2024-02-26T01:15:51;15.85;;;7.63;;
76765;SDS011;65707;52.362;6.588;2024-02-26T01:18:17;13.98;;;6.40;;
76765;SDS011;65707;52.362;6.588;2024-02-26T01:20:44;11.38;;;5.57;;
76765;SDS011;65707;52.362;6.588;2024-02-26T01:23:11;12.20;;;4.93;;
76765;SDS011;65707;52.362;6.588;2024-02-26T01:25:38;11.15;;;4.63;;
76765;SDS011;65707;52.362;6.588;2024-02-26T01:28:06;10.27;;;5.13;;
76765;SDS011;65707;52.362;6.588;2024-02-26T01:30:33;12.20;;;5.40;;
76765;SDS011;65707;52.362;6.588;2024-02-26T01:33:00;10.18;;;5.13;;
76765;SDS011;65707;52.362;6.588;2024-02-26T01:35:26;11.48;;;5.22;;
76765;SDS011;65707;52.362;6.588;2024-02-26T01:37:53;10.93;;;5.40;;
76765;SDS011;65707;52.362;6.588;2024-02-26T01:40:20;10.90;;;5.38;;
76765;SDS011;65707;52.362;6.588;2024-02-26T01:42:47;12.48;;;5.70;;
76765;SDS011;65707;52.362;6.588;2024-02-26T01:45:16;12.80;;;5.60;;
76765;SDS011;65707;52.362;6.588;2024-02-26T01:47:47;11.57;;;4.85;;
76765;SDS011;65707;52.362;6.588;2024-02-26T01:50:16;11.75;;;4.82;;
76765;SDS011;65707;52.362;6.588;2024-02-26T01:52:44;10.45;;;4.90;;
76765;SDS011;65707;52.362;6.588;2024-02-26T01:55:12;12.73;;;5.80;;
76765;SDS011;65707;52.362;6.588;2024-02-26T01:57:40;11.63;;;5.38;;
76765;SDS011;65707;52.362;6.588;2024-02-26T02:00:09;11.50;;;5.82;;
76765;SDS011;65707;52.362;6.588;2024-02-26T02:02:38;11.70;;;5.50;;
76765;SDS011;65707;52.362;6.588;2024-02-26T02:05:07;14.52;;;6.07;;
76765;SDS011;65707;52.362;6.588;2024-02-26T02:07:36;11.93;;;6.05;;
76765;SDS011;65707;52.362;6.588;2024-02-26T02:10:03;13.77;;;5.82;;
76765;SDS011;65707;52.362;6.588;2024-02-26T02:12:32;13.75;;;6.50;;
76765;SDS011;65707;52.362;6.588;2024-02-26T02:14:59;15.00;;;7.43;;
76765;SDS011;65707;52.362;6.588;2024-02-26T02:17:26;15.52;;;7.22;;
76765;SDS011;65707;52.362;6.588;2024-02-26T02:19:55;15.65;;;7.00;;
76765;SDS011;65707;52.362;6.588;2024-02-26T02:22:23;14.23;;;6.45;;
76765;SDS011;65707;52.362;6.588;2024-02-26T02:24:52;14.55;;;7.05;;
76765;SDS011;65707;52.362;6.588;2024-02-26T02:27:19;13.88;;;6.75;;
76765;SDS011;65707;52.362;6.588;2024-02-26T02:29:46;12.65;;;6.70;;
76765;SDS011;65707;52.362;6.588;2024-02-26T02:32:14;13.88;;;6.68;;
76765;SDS011;65707;52.362;6.588;2024-02-26T02:34:44;13.88;;;6.03;;
76765;SDS011;65707;52.362;6.588;2024-02-26T02:37:11;14.27;;;6.50;;
76765;SDS011;65707;52.362;6.588;2024-02-26T02:39:39;13.60;;;6.70;;
76765;SDS011;65707;52.362;6.588;2024-02-26T02:42:08;13.98;;;6.47;;
76765;SDS011;65707;52.362;6.588;2024-02-26T02:44:35;18.30;;;7.60;;
76765;SDS011;65707;52.362;6.588;2024-02-26T02:47:01;15.43;;;6.22;;
76765;SDS011;65707;52.362;6.588;2024-02-26T02:49:28;15.82;;;7.15;;
76765;SDS011;65707;52.362;6.588;2024-02-26T02:51:55;13.40;;;6.03;;
76765;SDS011;65707;52.362;6.588;2024-02-26T02:54:22;12.18;;;5.93;;
76765;SDS011;65707;52.362;6.588;2024-02-26T02:56:50;11.15;;;5.57;;
76765;SDS011;65707;52.362;6.588;2024-02-26T02:59:17;12.20;;;5.97;;
76765;SDS011;65707;52.362;6.588;2024-02-26T03:01:44;11.60;;;5.40;;
76765;SDS011;65707;52.362;6.588;2024-02-26T03:04:10;11.23;;;6.10;;
76765;SDS011;65707;52.362;6.588;2024-02-26T03:06:37;12.23;;;5.90;;
76765;SDS011;65707;52.362;6.588;2024-02-26T03:09:04;13.10;;;6.57;;
76765;SDS011;65707;52.362;6.588;2024-02-26T03:11:30;13.65;;;5.85;;
76765;SDS011;65707;52.362;6.588;2024-02-26T03:13:59;12.48;;;6.03;;
76765;SDS011;65707;52.362;6.588;2024-02-26T03:16:26;14.80;;;6.50;;
76765;SDS011;65707;52.362;6.588;2024-02-26T03:18:53;12.32;;;5.85;;
76765;SDS011;65707;52.362;6.588;2024-02-26T03:21:19;9.93;;;4.28;;
76765;SDS011;65707;52.362;6.588;2024-02-26T03:23:46;11.88;;;5.32;;
76765;SDS011;65707;52.362;6.588;2024-02-26T03:26:12;10.55;;;4.88;;
76765;SDS011;65707;52.362;6.588;2024-02-26T03:28:39;10.55;;;5.20;;
76765;SDS011;65707;52.362;6.588;2024-02-26T03:31:08;10.63;;;4.78;;
76765;SDS011;65707;52.362;6.588;2024-02-26T03:33:35;11.40;;;4.95;;
76765;SDS011;65707;52.362;6.588;2024-02-26T03:36:02;10.77;;;5.07;;
76765;SDS011;65707;52.362;6.588;2024-02-26T03:38:29;10.23;;;5.15;;
76765;SDS011;65707;52.362;6.588;2024-02-26T03:40:56;11.05;;;5.15;;
76765;SDS011;65707;52.362;6.588;2024-02-26T03:43:23;13.15;;;6.10;;
76765;SDS011;65707;52.362;6.588;2024-02-26T03:45:50;11.85;;;5.40;;
76765;SDS011;65707;52.362;6.588;2024-02-26T03:48:18;13.55;;;6.53;;
76765;SDS011;65707;52.362;6.588;2024-02-26T03:50:44;11.27;;;5.60;;
76765;SDS011;65707;52.362;6.588;2024-02-26T03:53:11;9.70;;;5.13;;
76765;SDS011;65707;52.362;6.588;2024-02-26T03:55:39;10.90;;;5.00;;
76765;SDS011;65707;52.362;6.588;2024-02-26T03:58:06;10.63;;;4.93;;
76765;SDS011;65707;52.362;6.588;2024-02-26T04:00:33;9.60;;;5.07;;
76765;SDS011;65707;52.362;6.588;2024-02-26T04:03:00;10.43;;;4.93;;
76765;SDS011;65707;52.362;6.588;2024-02-26T04:05:28;9.13;;;4.93;;
76765;SDS011;65707;52.362;6.588;2024-02-26T04:07:55;8.80;;;4.40;;
76765;SDS011;65707;52.362;6.588;2024-02-26T04:10:21;10.35;;;4.60;;
76765;SDS011;65707;52.362;6.588;2024-02-26T04:12:48;9.27;;;4.50;;
76765;SDS011;65707;52.362;6.588;2024-02-26T04:15:15;11.32;;;4.60;;
76765;SDS011;65707;52.362;6.588;2024-02-26T04:17:42;10.60;;;4.10;;
76765;SDS011;65707;52.362;6.588;2024-02-26T04:20:12;9.70;;;4.88;;
76765;SDS011;65707;52.362;6.588;2024-02-26T04:22:42;8.93;;;4.38;;
76765;SDS011;65707;52.362;6.588;2024-02-26T04:25:08;9.88;;;4.57;;
76765;SDS011;65707;52.362;6.588;2024-02-26T04:27:35;10.27;;;5.10;;
76765;SDS011;65707;52.362;6.588;2024-02-26T04:30:03;9.90;;;4.97;;
76765;SDS011;65707;52.362;6.588;2024-02-26T04:32:31;10.48;;;4.70;;
76765;SDS011;65707;52.362;6.588;2024-02-26T04:35:02;11.23;;;5.55;;
76765;SDS011;65707;52.362;6.588;2024-02-26T04:37:29;10.48;;;4.47;;
76765;SDS011;65707;52.362;6.588;2024-02-26T04:39:58;11.13;;;4.65;;
76765;SDS011;65707;52.362;6.588;2024-02-26T04:42:25;11.45;;;5.38;;
76765;SDS011;65707;52.362;6.588;2024-02-26T04:44:54;10.23;;;4.90;;
76765;SDS011;65707;52.362;6.588;2024-02-26T04:47:21;10.40;;;5.35;;
76765;SDS011;65707;52.362;6.588;2024-02-26T04:49:48;11.85;;;5.38;;
76765;SDS011;65707;52.362;6.588;2024-02-26T04:52:15;10.23;;;5.35;;
76765;SDS011;65707;52.362;6.588;2024-02-26T04:54:42;10.68;;;4.60;;
76765;SDS011;65707;52.362;6.588;2024-02-26T04:57:10;11.18;;;4.43;;
76765;SDS011;65707;52.362;6.588;2024-02-26T04:59:36;10.88;;;5.38;;
76765;SDS011;65707;52.362;6.588;2024-02-26T05:02:03;11.30;;;5.07;;
76765;SDS011;65707;52.362;6.588;2024-02-26T05:04:30;10.82;;;4.85;;
76765;SDS011;65707;52.362;6.588;2024-02-26T05:06:57;10.05;;;4.22;;
76765;SDS011;65707;52.362;6.588;2024-02-26T05:09:23;10.07;;;4.80;;
76765;SDS011;65707;52.362;6.588;2024-02-26T05:11:50;10.82;;;5.45;;
76765;SDS011;65707;52.362;6.588;2024-02-26T05:14:18;13.45;;;5.18;;
76765;SDS011;65707;52.362;6.588;2024-02-26T05:16:45;12.13;;;5.85;;
76765;SDS011;65707;52.362;6.588;2024-02-26T05:19:12;13.32;;;5.70;;
76765;SDS011;65707;52.362;6.588;2024-02-26T05:21:39;13.65;;;6.15;;
76765;SDS011;65707;52.362;6.588;2024-02-26T05:24:06;12.00;;;5.95;;
76765;SDS011;65707;52.362;6.588;2024-02-26T05:26:33;12.80;;;6.63;;
76765;SDS011;65707;52.362;6.588;2024-02-26T05:28:59;12.88;;;5.90;;
76765;SDS011;65707;52.362;6.588;2024-02-26T05:31:27;12.30;;;5.90;;
76765;SDS011;65707;52.362;6.588;2024-02-26T05:33:54;13.77;;;6.15;;
76765;SDS011;65707;52.362;6.588;2024-02-26T05:36:21;14.32;;;6.40;;
76765;SDS011;65707;52.362;6.588;2024-02-26T05:38:48;13.88;;;6.35;;
76765;SDS011;65707;52.362;6.588;2024-02-26T05:41:15;13.32;;;7.05;;
76765;SDS011;65707;52.362;6.588;2024-02-26T05:43:47;12.00;;;5.50;;
76765;SDS011;65707;52.362;6.588;2024-02-26T05:46:16;14.15;;;7.25;;
76765;SDS011;65707;52.362;6.588;2024-02-26T05:48:44;14.25;;;6.45;;
76765;SDS011;65707;52.362;6.588;2024-02-26T05:51:10;14.57;;;7.18;;
76765;SDS011;65707;52.362;6.588;2024-02-26T05:53:37;19.80;;;7.70;;
76765;SDS011;65707;52.362;6.588;2024-02-26T05:56:04;13.65;;;7.03;;
76765;SDS011;65707;52.362;6.588;2024-02-26T05:58:32;15.35;;;7.95;;
76765;SDS011;65707;52.362;6.588;2024-02-26T06:00:59;15.25;;;7.82;;
76765;SDS011;65707;52.362;6.588;2024-02-26T06:03:26;16.23;;;7.32;;
76765;SDS011;65707;52.362;6.588;2024-02-26T06:05:54;15.85;;;7.72;;
76765;SDS011;65707;52.362;6.588;2024-02-26T06:08:21;15.13;;;7.05;;
76765;SDS011;65707;52.362;6.588;2024-02-26T06:10:47;17.15;;;7.70;;
76765;SDS011;65707;52.362;6.588;2024-02-26T06:13:14;15.90;;;7.15;;
76765;SDS011;65707;52.362;6.588;2024-02-26T06:15:41;17.08;;;8.13;;
76765;SDS011;65707;52.362;6.588;2024-02-26T06:18:08;15.52;;;7.88;;
76765;SDS011;65707;52.362;6.588;2024-02-26T06:20:34;14.68;;;7.60;;
76765;SDS011;65707;52.362;6.588;2024-02-26T06:23:02;13.32;;;6.90;;
76765;SDS011;65707;52.362;6.588;2024-02-26T06:25:29;14.48;;;7.38;;
76765;SDS011;65707;52.362;6.588;2024-02-26T06:27:57;14.45;;;7.20;;
76765;SDS011;65707;52.362;6.588;2024-02-26T06:30:24;15.48;;;8.35;;
76765;SDS011;65707;52.362;6.588;2024-02-26T06:32:51;14.57;;;8.50;;
76765;SDS011;65707;52.362;6.588;2024-02-26T06:35:17;35.15;;;21.67;;
76765;SDS011;65707;52.362;6.588;2024-02-26T06:37:44;18.70;;;10.45;;
76765;SDS011;65707;52.362;6.588;2024-02-26T06:40:12;21.45;;;12.48;;
76765;SDS011;65707;52.362;6.588;2024-02-26T06:42:39;17.52;;;10.23;;
76765;SDS011;65707;52.362;6.588;2024-02-26T06:45:06;15.93;;;8.55;;
76765;SDS011;65707;52.362;6.588;2024-02-26T06:47:33;24.02;;;13.20;;
76765;SDS011;65707;52.362;6.588;2024-02-26T06:50:00;71.95;;;36.97;;
76765;SDS011;65707;52.362;6.588;2024-02-26T06:52:27;29.35;;;21.15;;
76765;SDS011;65707;52.362;6.588;2024-02-26T06:54:53;30.67;;;22.73;;
76765;SDS011;65707;52.362;6.588;2024-02-26T06:57:21;17.65;;;9.05;;
76765;SDS011;65707;52.362;6.588;2024-02-26T06:59:48;13.95;;;7.05;;
76765;SDS011;65707;52.362;6.588;2024-02-26T07:02:15;17.13;;;7.57;;
76765;SDS011;65707;52.362;6.588;2024-02-26T07:04:42;15.38;;;7.32;;
76765;SDS011;65707;52.362;6.588;2024-02-26T07:07:09;14.55;;;7.63;;
76765;SDS011;65707;52.362;6.588;2024-02-26T07:09:36;54.40;;;49.40;;
76765;SDS011;65707;52.362;6.588;2024-02-26T07:12:03;18.15;;;8.50;;
76765;SDS011;65707;52.362;6.588;2024-02-26T07:14:31;17.40;;;8.57;;
76765;SDS011;65707;52.362;6.588;2024-02-26T07:16:58;16.83;;;8.02;;
76765;SDS011;65707;52.362;6.588;2024-02-26T07:19:25;25.08;;;12.93;;
76765;SDS011;65707;52.362;6.588;2024-02-26T07:21:52;38.88;;;18.15;;
76765;SDS011;65707;52.362;6.588;2024-02-26T07:24:19;26.38;;;11.02;;
76765;SDS011;65707;52.362;6.588;2024-02-26T07:26:45;26.20;;;12.18;;
76765;SDS011;65707;52.362;6.588;2024-02-26T07:29:12;43.50;;;21.38;;
76765;SDS011;65707;52.362;6.588;2024-02-26T07:31:40;21.38;;;11.18;;
76765;SDS011;65707;52.362;6.588;2024-02-26T07:34:07;24.48;;;13.88;;
76765;SDS011;65707;52.362;6.588;2024-02-26T07:36:33;20.33;;;10.00;;
76765;SDS011;65707;52.362;6.588;2024-02-26T07:39:01;21.08;;;11.75;;
76765;SDS011;65707;52.362;6.588;2024-02-26T07:41:27;17.08;;;7.65;;
76765;SDS011;65707;52.362;6.588;2024-02-26T07:43:54;16.75;;;8.23;;
76765;SDS011;65707;52.362;6.588;2024-02-26T07:46:21;16.33;;;6.72;;
76765;SDS011;65707;52.362;6.588;2024-02-26T07:48:49;17.70;;;8.20;;
76765;SDS011;65707;52.362;6.588;2024-02-26T07:51:16;78.25;;;44.47;;
76765;SDS011;65707;52.362;6.588;2024-02-26T07:53:43;22.73;;;12.15;;
76765;SDS011;65707;52.362;6.588;2024-02-26T07:56:09;26.83;;;14.13;;
76765;SDS011;65707;52.362;6.588;2024-02-26T07:58:36;28.33;;;16.08;;
76765;SDS011;65707;52.362;6.588;2024-02-26T08:01:04;34.08;;;18.23;;
76765;SDS011;65707;52.362;6.588;2024-02-26T08:03:30;91.25;;;43.53;;
76765;SDS011;65707;52.362;6.588;2024-02-26T08:05:58;118.45;;;49.25;;
76765;SDS011;65707;52.362;6.588;2024-02-26T08:08:25;61.65;;;29.98;;
76765;SDS011;65707;52.362;6.588;2024-02-26T08:10:51;74.22;;;32.10;;
76765;SDS011;65707;52.362;6.588;2024-02-26T08:13:18;77.22;;;31.08;;
76765;SDS011;65707;52.362;6.588;2024-02-26T08:15:45;114.40;;;42.35;;
76765;SDS011;65707;52.362;6.588;2024-02-26T08:18:11;37.92;;;17.75;;
76765;SDS011;65707;52.362;6.588;2024-02-26T08:20:38;34.25;;;18.40;;
76765;SDS011;65707;52.362;6.588;2024-02-26T08:23:06;33.35;;;18.55;;
76765;SDS011;65707;52.362;6.588;2024-02-26T08:25:33;26.15;;;13.27;;
76765;SDS011;65707;52.362;6.588;2024-02-26T08:28:00;22.25;;;9.98;;
76765;SDS011;65707;52.362;6.588;2024-02-26T08:30:26;36.33;;;22.08;;
76765;SDS011;65707;52.362;6.588;2024-02-26T08:32:53;21.10;;;11.05;;
76765;SDS011;65707;52.362;6.588;2024-02-26T08:35:20;21.60;;;11.55;;
76765;SDS011;65707;52.362;6.588;2024-02-26T08:37:46;22.60;;;12.15;;
76765;SDS011;65707;52.362;6.588;2024-02-26T08:40:15;21.85;;;10.85;;
76765;SDS011;65707;52.362;6.588;2024-02-26T08:42:42;25.27;;;14.77;;
76765;SDS011;65707;52.362;6.588;2024-02-26T08:45:09;19.40;;;8.88;;
76765;SDS011;65707;52.362;6.588;2024-02-26T08:47:36;21.35;;;11.18;;
76765;SDS011;65707;52.362;6.588;2024-02-26T08:50:03;16.92;;;8.75;;
76765;SDS011;65707;52.362;6.588;2024-02-26T08:52:31;17.25;;;7.35;;
76765;SDS011;65707;52.362;6.588;2024-02-26T08:54:58;22.60;;;13.00;;
76765;SDS011;65707;52.362;6.588;2024-02-26T08:57:26;27.45;;;17.25;;
76765;SDS011;65707;52.362;6.588;2024-02-26T08:59:53;21.98;;;13.30;;
76765;SDS011;65707;52.362;6.588;2024-02-26T09:02:19;18.85;;;8.85;;
76765;SDS011;65707;52.362;6.588;2024-02-26T09:04:46;16.77;;;6.88;;
76765;SDS011;65707;52.362;6.588;2024-02-26T09:07:13;16.77;;;7.55;;
76765;SDS011;65707;52.362;6.588;2024-02-26T09:09:39;19.48;;;9.63;;
76765;SDS011;65707;52.362;6.588;2024-02-26T09:12:05;21.33;;;11.73;;
76765;SDS011;65707;52.362;6.588;2024-02-26T09:14:33;15.80;;;7.25;;
76765;SDS011;65707;52.362;6.588;2024-02-26T09:17:00;17.08;;;7.80;;
76765;SDS011;65707;52.362;6.588;2024-02-26T09:19:27;15.75;;;7.03;;
76765;SDS011;65707;52.362;6.588;2024-02-26T09:21:54;15.98;;;8.18;;
76765;SDS011;65707;52.362;6.588;2024-02-26T09:24:22;15.35;;;6.95;;
76765;SDS011;65707;52.362;6.588;2024-02-26T09:26:49;14.27;;;6.47;;
76765;SDS011;65707;52.362;6.588;2024-02-26T09:29:16;14.65;;;7.30;;
76765;SDS011;65707;52.362;6.588;2024-02-26T09:31:44;15.55;;;6.65;;
76765;SDS011;65707;52.362;6.588;2024-02-26T09:34:12;18.27;;;9.50;;
76765;SDS011;65707;52.362;6.588;2024-02-26T09:36:39;15.18;;;7.18;;
76765;SDS011;65707;52.362;6.588;2024-02-26T09:39:05;18.30;;;6.38;;
76765;SDS011;65707;52.362;6.588;2024-02-26T09:41:36;20.10;;;11.50;;
76765;SDS011;65707;52.362;6.588;2024-02-26T09:44:04;15.55;;;8.63;;
76765;SDS011;65707;52.362;6.588;2024-02-26T09:46:31;14.05;;;7.82;;
76765;SDS011;65707;52.362;6.588;2024-02-26T09:48:59;15.50;;;7.80;;
76765;SDS011;65707;52.362;6.588;2024-02-26T09:51:26;14.15;;;6.47;;
76765;SDS011;65707;52.362;6.588;2024-02-26T09:53:53;16.63;;;7.78;;
76765;SDS011;65707;52.362;6.588;2024-02-26T09:56:25;14.95;;;7.43;;
76765;SDS011;65707;52.362;6.588;2024-02-26T09:58:54;17.05;;;10.32;;
76765;SDS011;65707;52.362;6.588;2024-02-26T10:01:24;17.10;;;8.07;;
76765;SDS011;65707;52.362;6.588;2024-02-26T10:03:52;13.38;;;6.38;;
76765;SDS011;65707;52.362;6.588;2024-02-26T10:06:25;22.70;;;11.98;;
76765;SDS011;65707;52.362;6.588;2024-02-26T10:08:53;15.82;;;7.88;;
76765;SDS011;65707;52.362;6.588;2024-02-26T10:11:20;17.33;;;8.77;;
76765;SDS011;65707;52.362;6.588;2024-02-26T10:13:49;14.20;;;6.88;;
76765;SDS011;65707;52.362;6.588;2024-02-26T10:16:16;11.95;;;6.70;;
76765;SDS011;65707;52.362;6.588;2024-02-26T10:18:47;14.48;;;6.32;;
76765;SDS011;65707;52.362;6.588;2024-02-26T10:21:15;17.48;;;7.82;;
76765;SDS011;65707;52.362;6.588;2024-02-26T10:23:45;32.78;;;16.33;;
76765;SDS011;65707;52.362;6.588;2024-02-26T10:26:13;35.70;;;17.58;;
76765;SDS011;65707;52.362;6.588;2024-02-26T10:28:41;12.32;;;6.22;;
76765;SDS011;65707;52.362;6.588;2024-02-26T10:31:10;11.55;;;5.68;;
76765;SDS011;65707;52.362;6.588;2024-02-26T10:33:37;17.27;;;11.25;;
76765;SDS011;65707;52.362;6.588;2024-02-26T10:36:05;18.85;;;11.82;;
76765;SDS011;65707;52.362;6.588;2024-02-26T10:38:34;39.05;;;23.83;;
76765;SDS011;65707;52.362;6.588;2024-02-26T10:41:03;12.27;;;6.45;;
76765;SDS011;65707;52.362;6.588;2024-02-26T10:43:30;12.98;;;6.35;;
76765;SDS011;65707;52.362;6.588;2024-02-26T10:45:57;13.23;;;6.82;;
76765;SDS011;65707;52.362;6.588;2024-02-26T10:48:24;11.68;;;6.10;;
76765;SDS011;65707;52.362;6.588;2024-02-26T10:50:51;12.68;;;5.10;;
76765;SDS011;65707;52.362;6.588;2024-02-26T10:53:20;11.25;;;5.53;;
76765;SDS011;65707;52.362;6.588;2024-02-26T10:55:48;11.88;;;4.88;;
76765;SDS011;65707;52.362;6.588;2024-02-26T10:58:22;11.35;;;5.13;;
76765;SDS011;65707;52.362;6.588;2024-02-26T11:00:51;11.52;;;6.78;;
76765;SDS011;65707;52.362;6.588;2024-02-26T11:03:19;13.00;;;6.72;;
76765;SDS011;65707;52.362;6.588;2024-02-26T11:05:47;11.15;;;5.40;;
76765;SDS011;65707;52.362;6.588;2024-02-26T11:08:15;15.43;;;7.63;;
76765;SDS011;65707;52.362;6.588;2024-02-26T11:10:44;11.70;;;5.18;;
76765;SDS011;65707;52.362;6.588;2024-02-26T11:15:43;15.00;;;4.95;;
76765;SDS011;65707;52.362;6.588;2024-02-26T11:18:12;11.23;;;5.68;;
76765;SDS011;65707;52.362;6.588;2024-02-26T11:20:41;13.02;;;6.43;;
76765;SDS011;65707;52.362;6.588;2024-02-26T11:23:09;10.38;;;4.78;;
76765;SDS011;65707;52.362;6.588;2024-02-26T11:25:36;12.25;;;5.45;;
76765;SDS011;65707;52.362;6.588;2024-02-26T11:28:05;13.13;;;7.80;;
76765;SDS011;65707;52.362;6.588;2024-02-26T11:30:38;12.63;;;4.95;;
76765;SDS011;65707;52.362;6.588;2024-02-26T11:33:10;13.48;;;4.95;;
76765;SDS011;65707;52.362;6.588;2024-02-26T11:35:39;13.13;;;6.38;;
76765;SDS011;65707;52.362;6.588;2024-02-26T11:38:06;12.27;;;6.00;;
76765;SDS011;65707;52.362;6.588;2024-02-26T11:40:33;31.50;;;22.38;;
76765;SDS011;65707;52.362;6.588;2024-02-26T11:43:06;27.30;;;20.67;;
76765;SDS011;65707;52.362;6.588;2024-02-26T11:45:48;10.85;;;5.10;;
76765;SDS011;65707;52.362;6.588;2024-02-26T11:48:23;22.02;;;13.57;;
76765;SDS011;65707;52.362;6.588;2024-02-26T11:50:51;26.15;;;15.98;;
76765;SDS011;65707;52.362;6.588;2024-02-26T11:53:21;13.55;;;6.15;;
76765;SDS011;65707;52.362;6.588;2024-02-26T11:58:46;20.20;;;9.77;;
76765;SDS011;65707;52.362;6.588;2024-02-26T12:04:18;17.00;;;9.18;;
76765;SDS011;65707;52.362;6.588;2024-02-26T12:06:51;11.75;;;6.78;;
76765;SDS011;65707;52.362;6.588;2024-02-26T12:09:35;14.02;;;7.85;;
76765;SDS011;65707;52.362;6.588;2024-02-26T12:12:04;16.23;;;11.68;;
76765;SDS011;65707;52.362;6.588;2024-02-26T12:14:33;14.10;;;8.27;;
76765;SDS011;65707;52.362;6.588;2024-02-26T12:17:03;13.95;;;7.25;;
76765;SDS011;65707;52.362;6.588;2024-02-26T12:19:33;14.80;;;7.50;;
76765;SDS011;65707;52.362;6.588;2024-02-26T12:22:01;34.42;;;18.48;;
76765;SDS011;65707;52.362;6.588;2024-02-26T12:24:30;45.40;;;22.58;;
76765;SDS011;65707;52.362;6.588;2024-02-26T12:26:56;26.88;;;12.20;;
76765;SDS011;65707;52.362;6.588;2024-02-26T12:29:23;15.65;;;8.13;;
76765;SDS011;65707;52.362;6.588;2024-02-26T12:31:49;11.63;;;5.50;;
76765;SDS011;65707;52.362;6.588;2024-02-26T12:34:17;9.90;;;4.50;;
76765;SDS011;65707;52.362;6.588;2024-02-26T12:36:46;9.93;;;3.97;;
76765;SDS011;65707;52.362;6.588;2024-02-26T12:39:15;22.63;;;12.77;;
76765;SDS011;65707;52.362;6.588;2024-02-26T12:41:42;14.60;;;7.28;;
76765;SDS011;65707;52.362;6.588;2024-02-26T12:44:14;11.80;;;5.00;;
76765;SDS011;65707;52.362;6.588;2024-02-26T12:46:41;31.42;;;18.75;;
76765;SDS011;65707;52.362;6.588;2024-02-26T12:49:07;12.27;;;6.53;;
76765;SDS011;65707;52.362;6.588;2024-02-26T12:51:34;14.02;;;6.35;;
76765;SDS011;65707;52.362;6.588;2024-02-26T12:54:02;11.80;;;5.55;;
76765;SDS011;65707;52.362;6.588;2024-02-26T12:56:30;32.47;;;16.15;;
76765;SDS011;65707;52.362;6.588;2024-02-26T12:58:57;62.88;;;30.15;;
76765;SDS011;65707;52.362;6.588;2024-02-26T13:01:25;22.08;;;9.70;;
76765;SDS011;65707;52.362;6.588;2024-02-26T13:03:53;19.02;;;8.27;;
76765;SDS011;65707;52.362;6.588;2024-02-26T13:06:21;18.88;;;7.63;;
76765;SDS011;65707;52.362;6.588;2024-02-26T13:08:48;16.10;;;7.43;;
76765;SDS011;65707;52.362;6.588;2024-02-26T13:11:17;9.07;;;4.07;;
76765;SDS011;65707;52.362;6.588;2024-02-26T13:13:47;10.18;;;5.43;;
76765;SDS011;65707;52.362;6.588;2024-02-26T13:16:15;10.52;;;5.38;;
76765;SDS011;65707;52.362;6.588;2024-02-26T13:18:42;17.33;;;8.95;;
76765;SDS011;65707;52.362;6.588;2024-02-26T13:21:09;13.00;;;6.47;;
76765;SDS011;65707;52.362;6.588;2024-02-26T13:23:38;21.23;;;9.98;;
76765;SDS011;65707;52.362;6.588;2024-02-26T13:26:06;19.02;;;9.23;;
76765;SDS011;65707;52.362;6.588;2024-02-26T13:28:35;17.85;;;8.00;;
76765;SDS011;65707;52.362;6.588;2024-02-26T13:31:02;16.05;;;9.15;;
76765;SDS011;65707;52.362;6.588;2024-02-26T13:33:31;10.60;;;5.25;;
76765;SDS011;65707;52.362;6.588;2024-02-26T13:35:58;16.35;;;9.18;;
76765;SDS011;65707;52.362;6.588;2024-02-26T13:38:26;16.00;;;8.25;;
76765;SDS011;65707;52.362;6.588;2024-02-26T13:40:54;24.40;;;12.25;;
76765;SDS011;65707;52.362;6.588;2024-02-26T13:43:21;29.95;;;14.15;;
76765;SDS011;65707;52.362;6.588;2024-02-26T13:45:50;10.25;;;5.05;;
76765;SDS011;65707;52.362;6.588;2024-02-26T13:48:16;30.40;;;13.05;;
76765;SDS011;65707;52.362;6.588;2024-02-26T13:50:43;27.27;;;12.27;;
76765;SDS011;65707;52.362;6.588;2024-02-26T13:53:11;44.50;;;19.02;;
76765;SDS011;65707;52.362;6.588;2024-02-26T13:55:40;31.08;;;14.35;;
76765;SDS011;65707;52.362;6.588;2024-02-26T13:58:08;20.45;;;12.60;;
76765;SDS011;65707;52.362;6.588;2024-02-26T14:00:39;18.45;;;11.30;;
76765;SDS011;65707;52.362;6.588;2024-02-26T14:03:08;15.20;;;9.07;;
76765;SDS011;65707;52.362;6.588;2024-02-26T14:05:34;18.40;;;10.75;;
76765;SDS011;65707;52.362;6.588;2024-02-26T14:08:01;12.85;;;6.22;;
76765;SDS011;65707;52.362;6.588;2024-02-26T14:10:28;19.60;;;10.70;;
76765;SDS011;65707;52.362;6.588;2024-02-26T14:12:55;19.35;;;13.18;;
76765;SDS011;65707;52.362;6.588;2024-02-26T14:15:23;25.05;;;19.00;;
76765;SDS011;65707;52.362;6.588;2024-02-26T14:17:50;18.25;;;11.63;;
76765;SDS011;65707;52.362;6.588;2024-02-26T14:20:22;14.10;;;8.55;;
76765;SDS011;65707;52.362;6.588;2024-02-26T14:22:50;15.02;;;6.07;;
76765;SDS011;65707;52.362;6.588;2024-02-26T14:25:18;15.65;;;8.10;;
76765;SDS011;65707;52.362;6.588;2024-02-26T14:27:45;18.55;;;8.60;;
76765;SDS011;65707;52.362;6.588;2024-02-26T14:30:12;16.50;;;7.70;;
76765;SDS011;65707;52.362;6.588;2024-02-26T14:32:40;22.83;;;7.50;;
76765;SDS011;65707;52.362;6.588;2024-02-26T14:35:07;18.08;;;11.82;;
76765;SDS011;65707;52.362;6.588;2024-02-26T14:37:36;11.00;;;5.25;;
76765;SDS011;65707;52.362;6.588;2024-02-26T14:40:03;19.67;;;10.50;;
76765;SDS011;65707;52.362;6.588;2024-02-26T14:42:31;16.77;;;9.68;;
76765;SDS011;65707;52.362;6.588;2024-02-26T14:44:58;61.13;;;33.67;;